馬公航空站 - ATIS

METAR RCQC 281230Z 03010KT 9999 FEW012 27/24 Q1007 RMK A2975=

站台狀態:Offline
最後更新:2021-09-28 20:30:01